Liste des engagé(e)s
Classement
PDF
   
         
   
 
Pos N° Nom Prénom Pays Temps Ecart Pl. Cat. Pl. Sexe Club
1 747 MONTIBERT Julien 00:31:32 1 SE 1 M ft15
2 746 RAYER Jonathan 00:31:35 03 2 SE 2 M ft15
3 829 SOLTNER Simon 00:32:24 52 1 ES 3 M Du lait
4 745 JOTREAU Jonathan 00:32:48 01:16 3 SE 4 M Aroo38
5 731 BRUCHON Richard 00:33:19 01:47 1 V1 5 M les brubru en folie
6 730 BRUCHON Sebastien 00:33:58 02:26 1 JU 6 M les brubru en folie
7 832 GESTIN Mathieu 00:34:09 02:37 4 SE 7 M CLAN BARJO
8 840 SOUSSI Kacem 00:34:11 02:39 2 ES 8 M Du lait
9 826 OLIVAS Julien 00:34:15 02:43 3 ES 9 M Du lait
10 763 PREVOT François 00:37:10 05:38 5 SE 10 M Spartan Units
11 748 BARD Julien 00:37:23 05:51 4 ES 11 M Academie-bayard-boxe
12 1497 PUSSEL GRUE Adrien 00:38:25 06:53 1 CA 12 M Academie-bayard-boxe
13 733 BRUCHON Julien 00:38:29 06:57 1 MI 13 M les brubru en folie
14 734 BRUCHON Romain 00:38:34 07:02 1 BE 14 M les brubru en folie
15 732 BRUCHON Florian 00:38:34 07:02 2 BE 15 M les brubru en folie
16 836 CAMILLE Neumann 00:41:07 09:35 1 SE 1 F Clan Barjo
17 828 THÉOPHILE Barthe 00:41:31 09:59 5 ES 16 M Du lait
18 791 GRAÇA Felipe rui 00:41:59 10:27 2 V1 17 M SPARTAN UNITS
19 790 GRAÇA Nelson 00:41:59 10:27 3 BE 18 M SPARTAN UNITS
20 1498 CHAPSAL Simon 00:42:17 10:45 2 CA 19 M Academie-bayard-boxe
21 1499 RUEDA Gabriel 00:42:17 10:45 3 CA 20 M Academie-bayard-boxe
22 841 PIARULLI Lisa 00:42:42 11:10 2 SE 2 F SPARTAN UNITS
23 764 BACHELET Aurelie 00:43:21 11:49 3 SE 3 F SPARTAN UNITS
24 769 CHOSSAT Yoann 00:44:21 12:49 2 MI 21 M Les Niouks
25 749 ROJAT Michel 00:44:23 12:51 3 V1 22 M l'Alliance rebelle
26 742 GROSHENRY Julien 00:44:35 13:03 6 ES 23 M
27 837 GRESET Elodie 00:44:44 13:12 4 SE 4 F Clan barjo
28 811 PORCHEY Sebastien 00:48:28 16:56 6 SE 24 M SPARTAN UNITS
29 809 BREYMAND Amandine 00:48:29 16:57 5 SE 5 F SPARTAN UNITS
30 808 PORCHEY Jean 00:48:29 16:57 7 SE 25 M SPARTAN UNITS
31 758 ROCAMORA Romain 00:48:38 17:06 8 SE 26 M CLAN BARJO
32 750 SASSINE Gilbert 00:49:38 18:06 9 SE 27 M l'Alliance rebelle
33 824 PERCEROU Loris 00:50:31 18:59 4 BE 28 M Foot chartreuse
34 818 CHICHIGNOUD Lucas 00:50:32 19:00 5 BE 29 M Foot chartreuse
35 820 TARLET Titouan 00:50:32 19:00 6 BE 30 M Foot chartreuse
36 797 TIRARD COLLET Louis 00:51:30 19:58 3 MI 31 M Les S
37 798 JULITA Jenifer 00:51:30 19:58 1 MI 6 F Les S
38 796 PERCEROU Marina 00:51:34 20:02 2 MI 7 F Les S
39 825 SUBRAN Jules 00:52:02 20:30 7 BE 32 M Foot chartreuse
40 819 LORRET Maxime 00:52:38 21:06 8 BE 33 M Foot chartreuse
41 821 TIRARD COLLET Arthur 00:52:54 21:22 9 BE 34 M Foot chartreuse
42 799 GUERRE CHALEY Laurene 00:52:54 21:22 3 MI 8 F Les S
43 823 DAS Evan 00:53:06 21:34 10 BE 35 M Foot chartreuse
44 838 ARNAUD Louis 00:53:13 21:41 4 MI 36 M Foot chartreuse
45 751 MAURIN Nicolas 00:55:03 23:31 10 SE 37 M l'Alliance rebelle
46 834 GIBRAT Sarah 00:56:57 25:25 6 SE 9 F SPARTAN UNITS
47 833 LALLEMAND Marie 00:56:58 25:26 7 SE 10 F SPARTAN UNITS
48 842 DA SILVA Chrystel 00:57:15 25:43 8 SE 11 F Clan barjo
49 767 CHASSIGNEU Guy 00:57:25 25:53 1 V3 38 M
50 1453 COEUR Laurie 00:57:25 25:53 9 SE 12 F
51 768 CHASSIGNEU Hugues 00:57:25 25:53 11 SE 39 M
52 835 MAURICI Eliane 00:58:20 26:48 1 V1 13 F SPARTAN UNIT
53 741 DOUILLET Frederic 01:03:50 32:18 4 V1 40 M badminton Colombe
54 743 SALINAS Arnaud 01:05:12 33:40 2 JU 41 M badminton Colombe
55 788 ROMANO Carole 01:06:38 35:06 2 V1 14 F SPARTAN UNITS
56 789 ROMANO Philippe 01:06:38 35:06 1 V2 42 M SPARTAN UNITS
57 737 BENARD Cedric 01:07:15 35:43 12 SE 43 M badminton Colombe
58 812 PLAISANCE Nicolas 01:07:22 35:50 13 SE 44 M SPARTAN UNITS
59 805 FELIX Guillaume 01:07:24 35:52 14 SE 45 M SPARTAN UNITS
60 810 ROGLIANTI Thomas 01:07:26 35:54 15 SE 46 M SPARTAN UNITS
61 813 PETIT Camille 01:07:43 36:11 1 ES 15 F SPARTAN UNITS
62 806 FELIX Emilie 01:08:04 36:32 10 SE 16 F SPARTAN UNITS
63 803 GRASSANO Yohan 01:08:42 37:10 16 SE 47 M SPARTAN UNITS
64 802 PELISSON Ambre 01:08:42 37:10 11 SE 17 F SPARTAN UNITS
65 804 ARNAUD Audrey 01:08:43 37:11 12 SE 18 F SPARTAN UNITS
66 760 GRATTARD Franck 01:08:43 37:11 5 V1 48 M SPARTAN UNITS
67 738 EPPALE Lionel 01:10:27 38:55 6 V1 49 M badminton Colombe
68 830 BENOIST Margaux 01:10:34 39:02 2 ES 19 F Du lait
69 831 BENTROUDI Zina 01:11:29 39:57 1 JU 20 F Du lait
70 786 HJELMSTEDT Karin 01:12:22 40:50 13 SE 21 F WTF?! - Where is The Finish?
71 785 COSKUN Ozlem 01:12:22 40:50 14 SE 22 F WTF?! - Where is The Finish?
72 1117 PALADINO Florence 01:12:22 40:50 3 V1 23 F WTF?! - Where is The Finish?
73 744 MOREL Guillaume 01:12:54 41:22 17 SE 50 M
74 1157 FAUCHERY Paul 01:13:07 41:35 11 BE 51 M
75 1156 FAUCHERY Samuel 01:13:14 41:42 7 V1 52 M
76 756 BERNARD-REYMOND Sandrine 01:18:28 46:56 15 SE 24 F Les kik's
77 754 ROUVIERE Virginie 01:18:28 46:56 4 V1 25 F Les kik's
78 752 GALLAY Marie pierre 01:18:28 46:56 5 V1 26 F Les kik's
79 757 GILLIN JĂ©rĂ´me 01:18:28 46:56 8 V1 53 M Les kik's
80 753 GALLAY Alexandre 01:18:29 46:57 9 V1 54 M Les kik's
81 755 ROUVIERE Cyril 01:18:29 46:57 10 V1 55 M Les KIK's
82 739 AGOSTINIANO Gaetan 01:19:15 47:43 2 V2 56 M badminton Colombe
83 736 LAURE Jean-pierre 01:19:15 47:43 3 V2 57 M badminton Colombe
84 735 AGOSTINIANO Amélie 01:19:15 47:43 16 SE 27 F badminton Colombe
85 816 GOUJON Emilie 01:19:32 48:00 17 SE 28 F Les g'noux cassés
86 815 BONIN Stéphanie 01:19:32 48:00 18 SE 29 F Les g'noux cassés
87 814 MARTIN Olivier 01:19:32 48:00 11 V1 58 M Les g'noux cassés
88 781 DIMECH Maxime 01:20:09 48:37 3 JU 59 M Team M'A 38
89 776 MOLLARD Thomas 01:20:09 48:37 7 ES 60 M Team M'A 38
90 782 MAIRESSE Alexis 01:20:10 48:38 8 ES 61 M Team M'A 38
91 780 LUSTIERE Daniel 01:20:13 48:41 12 V1 62 M Team M'A 38
92 777 MOLLARD Francesca 01:20:16 48:44 3 ES 30 F Team M'A 38
93 778 LUSTIERE DĂ©borah 01:20:18 48:46 2 JU 31 F Team M'A 38
94 779 LUSTIERE Christian 01:20:19 48:47 4 V2 63 M Team M'A 38
95 801 LARAKI Sabrina 01:26:42 55:10 6 V1 32 F SPARTAN UNITS
96 807 MENDES Sandra 01:26:43 55:11 19 SE 33 F SPARTAN UNITS
97 793 MILAN Maxime 01:28:05 56:33 18 SE 64 M
98 792 COSTES Fanny 01:28:05 56:33 20 SE 34 F
99 795 MILAN Marion 01:28:06 56:34 21 SE 35 F
100 800 PESENTI Lilian 01:28:56 57:24 4 CA 65 M la team Pinpon
101 759 CLEYET Laurine 01:28:57 57:25 4 MI 36 F la team Pinpon
102 762 SARAT Yannick 01:28:57 57:25 5 MI 66 M la team Pinpon
103 765 BOTTA Amelie 01:28:57 57:25 1 CA 37 F la team Pinpon
104 761 TRUFFIER-BLANC LĂ©a 01:28:57 57:25 5 MI 38 F la team Pinpon
105 775 CLEYET Muriel 01:28:57 57:25 7 V1 39 F la team Pinpon
106 771 CHOSSAT Ludivine 01:40:24 01:08:52 2 CA 40 F Les Niouks
107 772 GUTTIN VESIN MĂ©lissa 01:40:25 01:08:53 22 SE 41 F Les Niouks
108 770 COTTIER Gaëlle 01:40:27 01:08:55 23 SE 42 F Les Niouks
109 774 DURAND Patricia 01:40:31 01:08:59 1 V2 43 F Les Niouks
110 773 SUBTIL Sylvia 01:40:31 01:08:59 8 V1 44 F Les Niouks
  La Renversante 3 Vague Elite 6km - Timing Perf Event 2017
 
Nombre ou lettres (3 minimum)
Classement    
Filtre :
Rang :